createdAt,value
2019-02-15T00:00:06.218Z,8.57
2019-02-15T00:01:06.205Z,8.57
2019-02-15T00:02:06.212Z,8.54
2019-02-15T00:03:06.201Z,8.53
2019-02-15T00:04:06.227Z,8.54
2019-02-15T00:05:06.266Z,8.56
2019-02-15T00:06:06.215Z,8.45
2019-02-15T00:07:06.309Z,8.45
2019-02-15T00:08:06.225Z,8.39
2019-02-15T00:09:06.260Z,8.45
2019-02-15T00:10:06.308Z,8.44
2019-02-15T00:11:06.295Z,8.46
2019-02-15T00:12:06.240Z,8.45
2019-02-15T00:13:13.274Z,8.38
2019-02-15T00:14:06.251Z,8.36
2019-02-15T00:15:06.364Z,8.39
2019-02-15T00:16:06.256Z,8.39
2019-02-15T00:17:06.305Z,8.36
2019-02-15T00:18:06.265Z,8.31
2019-02-15T00:19:06.284Z,8.41
2019-02-15T00:20:06.273Z,8.38
2019-02-15T00:21:06.295Z,8.21
2019-02-15T00:22:06.299Z,8.27
2019-02-15T00:23:06.343Z,8.28
2019-02-15T00:24:06.286Z,8.27
2019-02-15T00:25:06.289Z,8.24
2019-02-15T00:26:06.376Z,8.27
2019-02-15T00:27:06.289Z,8.28
2019-02-15T00:28:06.308Z,8.18
2019-02-15T00:29:06.344Z,8.14
2019-02-15T00:30:06.535Z,8.20
2019-02-15T00:31:06.347Z,8.21
2019-02-15T00:32:06.360Z,8.21
2019-02-15T00:33:06.320Z,8.20
2019-02-15T00:34:06.323Z,8.17
2019-02-15T00:35:06.330Z,8.09
2019-02-15T00:36:06.413Z,8.08
2019-02-15T00:37:06.405Z,8.11
2019-02-15T00:38:06.341Z,8.05
2019-02-15T00:39:06.343Z,8.11
2019-02-15T00:40:06.348Z,8.02
2019-02-15T00:41:06.356Z,8.08
2019-02-15T00:42:06.361Z,8.06
2019-02-15T00:43:06.422Z,8.06
2019-02-15T00:44:06.356Z,8.03
2019-02-15T00:45:06.356Z,8.05
2019-02-15T00:46:06.357Z,7.99
2019-02-15T00:47:06.466Z,8.01
2019-02-15T00:48:06.404Z,8.03
2019-02-15T00:49:06.387Z,7.96
2019-02-15T00:50:06.402Z,7.99
2019-02-15T00:51:06.375Z,7.99
2019-02-15T00:52:06.384Z,7.96
2019-02-15T00:53:06.468Z,7.95
2019-02-15T00:54:06.413Z,7.95
2019-02-15T00:55:06.397Z,7.98
2019-02-15T00:56:06.407Z,7.90
2019-02-15T00:57:06.422Z,7.90
2019-02-15T00:58:06.410Z,7.88
2019-02-15T00:59:06.428Z,7.87
2019-02-15T01:00:06.432Z,7.87
2019-02-15T01:01:06.451Z,7.88
2019-02-15T01:02:06.431Z,7.91
2019-02-15T01:03:06.424Z,7.90
2019-02-15T01:04:06.484Z,7.90
2019-02-15T01:05:06.438Z,7.98
2019-02-15T01:06:06.424Z,7.96
2019-02-15T01:07:06.437Z,7.96
2019-02-15T01:08:06.485Z,7.90
2019-02-15T01:09:06.469Z,7.87
2019-02-15T01:10:06.445Z,7.90
2019-02-15T01:11:06.461Z,7.87
2019-02-15T01:12:06.452Z,7.83
2019-02-15T01:13:06.474Z,7.85
2019-02-15T01:14:06.504Z,7.85
2019-02-15T01:15:06.525Z,7.81
2019-02-15T01:16:06.469Z,7.78
2019-02-15T01:17:06.479Z,7.88
2019-02-15T01:18:06.480Z,7.78
2019-02-15T01:19:06.479Z,7.75
2019-02-15T01:20:06.521Z,7.84
2019-02-15T01:21:06.507Z,7.77
2019-02-15T01:22:06.512Z,7.83
2019-02-15T01:23:06.492Z,7.78
2019-02-15T01:24:06.510Z,7.74
2019-02-15T01:25:06.496Z,7.70
2019-02-15T01:26:06.554Z,7.78
2019-02-15T01:27:06.513Z,7.69
2019-02-15T01:28:06.521Z,7.78
2019-02-15T01:29:06.544Z,7.75
2019-02-15T01:30:06.518Z,7.70
2019-02-15T01:31:06.534Z,7.74
2019-02-15T01:32:06.583Z,7.72
2019-02-15T01:33:06.546Z,7.75
2019-02-15T01:34:06.536Z,7.59
2019-02-15T01:35:06.544Z,7.56
2019-02-15T01:36:06.600Z,7.75
2019-02-15T01:37:06.593Z,7.58
2019-02-15T01:38:06.560Z,7.67
2019-02-15T01:39:06.563Z,7.78
2019-02-15T01:40:06.548Z,7.70
2019-02-15T01:41:06.569Z,7.67
2019-02-15T01:42:06.565Z,7.67
2019-02-15T01:43:06.624Z,7.55
2019-02-15T01:44:06.563Z,7.78
2019-02-15T01:45:06.575Z,7.69
2019-02-15T01:46:06.613Z,7.67
2019-02-15T01:47:06.596Z,7.62
2019-02-15T01:48:06.595Z,7.64
2019-02-15T01:49:06.598Z,7.66
2019-02-15T01:50:06.603Z,7.58
2019-02-15T01:51:06.599Z,7.61
2019-02-15T01:52:06.625Z,7.67
2019-02-15T01:53:06.685Z,7.66
2019-02-15T01:54:06.697Z,7.66
2019-02-15T01:55:06.613Z,7.67
2019-02-15T01:56:06.613Z,7.64
2019-02-15T01:57:06.610Z,7.66
2019-02-15T01:58:06.612Z,7.69
2019-02-15T01:59:06.671Z,7.66
2019-02-15T02:00:06.625Z,7.67
2019-02-15T02:01:06.634Z,7.58
2019-02-15T02:02:06.623Z,7.53
2019-02-15T02:03:06.647Z,7.69
2019-02-15T02:04:06.659Z,7.58
2019-02-15T02:05:06.660Z,7.67
2019-02-15T02:06:06.649Z,7.64
2019-02-15T02:07:06.642Z,7.59
2019-02-15T02:08:06.662Z,7.58
2019-02-15T02:09:06.666Z,7.64
2019-02-15T02:10:06.803Z,7.58
2019-02-15T02:11:06.685Z,7.56
2019-02-15T02:12:06.663Z,7.55
2019-02-15T02:13:06.677Z,7.56
2019-02-15T02:14:06.670Z,7.48
2019-02-15T02:15:06.690Z,7.47
2019-02-15T02:16:06.723Z,7.47
2019-02-15T02:17:06.697Z,7.48
2019-02-15T02:18:06.709Z,7.47
2019-02-15T02:19:06.691Z,7.51
2019-02-15T02:20:06.726Z,7.47
2019-02-15T02:21:06.709Z,7.53
2019-02-15T02:22:06.760Z,7.50
2019-02-15T02:23:06.706Z,7.51
2019-02-15T02:24:06.706Z,7.50
2019-02-15T02:25:06.739Z,7.46
2019-02-15T02:26:06.719Z,7.44
2019-02-15T02:27:06.718Z,7.50
2019-02-15T02:28:06.759Z,7.44
2019-02-15T02:29:06.726Z,7.43
2019-02-15T02:30:06.830Z,7.37
2019-02-15T02:31:06.729Z,7.46
2019-02-15T02:32:06.747Z,7.50
2019-02-15T02:33:06.750Z,7.43
2019-02-15T02:34:06.749Z,7.47
2019-02-15T02:35:06.744Z,7.46
2019-02-15T02:36:06.801Z,7.43
2019-02-15T02:37:06.841Z,7.39
2019-02-15T02:38:06.791Z,7.43
2019-02-15T02:39:06.759Z,7.41
2019-02-15T02:40:06.761Z,7.40
2019-02-15T02:41:06.765Z,7.46
2019-02-15T02:42:06.773Z,7.36
2019-02-15T02:43:06.810Z,7.39
2019-02-15T02:44:06.813Z,7.40
2019-02-15T02:45:06.829Z,7.37
2019-02-15T02:46:06.787Z,7.40
2019-02-15T02:47:06.790Z,7.47
2019-02-15T02:48:06.797Z,7.31
2019-02-15T02:49:06.827Z,7.32
2019-02-15T02:50:06.828Z,7.32
2019-02-15T02:51:06.812Z,7.36
2019-02-15T02:52:06.814Z,7.39
2019-02-15T02:53:06.825Z,7.31
2019-02-15T02:54:06.809Z,7.32
2019-02-15T02:55:06.870Z,7.29
2019-02-15T02:56:06.807Z,7.39
2019-02-15T02:57:06.869Z,7.25
2019-02-15T02:58:06.826Z,7.36
2019-02-15T02:59:06.870Z,7.28
2019-02-15T03:00:06.891Z,7.29
2019-02-15T03:01:06.846Z,7.41
2019-02-15T03:02:06.840Z,7.22
2019-02-15T03:03:06.903Z,7.22
2019-02-15T03:04:06.860Z,7.25
2019-02-15T03:05:06.858Z,7.26
2019-02-15T03:06:06.845Z,7.29
2019-02-15T03:07:06.861Z,7.31
2019-02-15T03:08:06.868Z,7.22
2019-02-15T03:09:06.885Z,7.31
2019-02-15T03:10:06.861Z,7.28
2019-02-15T03:11:06.890Z,7.33
2019-02-15T03:12:06.883Z,7.28
2019-02-15T03:13:06.867Z,7.21
2019-02-15T03:14:11.506Z,7.25
2019-02-15T03:15:07.023Z,7.28
2019-02-15T03:16:06.877Z,7.26
2019-02-15T03:17:07.056Z,7.15
2019-02-15T03:18:06.978Z,7.26
2019-02-15T03:19:06.891Z,7.21
2019-02-15T03:20:06.987Z,7.23
2019-02-15T03:21:06.914Z,7.22
2019-02-15T03:22:06.909Z,7.18
2019-02-15T03:23:06.911Z,7.18
2019-02-15T03:24:06.912Z,7.23
2019-02-15T03:25:06.940Z,7.21
2019-02-15T03:26:07.251Z,7.18
2019-02-15T03:27:06.946Z,7.22
2019-02-15T03:28:06.935Z,7.21
2019-02-15T03:29:06.964Z,7.22
2019-02-15T03:30:06.940Z,7.18
2019-02-15T03:31:06.947Z,7.21
2019-02-15T03:32:06.952Z,7.18
2019-02-15T03:33:07.048Z,7.10
2019-02-15T03:34:07.022Z,7.13
2019-02-15T03:35:07.025Z,7.19
2019-02-15T03:36:06.988Z,7.15
2019-02-15T03:37:06.968Z,7.07
2019-02-15T03:38:06.956Z,7.23
2019-02-15T03:39:06.986Z,7.04
2019-02-15T03:40:06.987Z,7.08
2019-02-15T03:41:06.982Z,7.08
2019-02-15T03:42:07.040Z,7.10
2019-02-15T03:43:06.980Z,6.96
2019-02-15T03:44:07.032Z,7.00
2019-02-15T03:45:06.978Z,7.05
2019-02-15T03:46:06.973Z,7.05
2019-02-15T03:47:06.991Z,7.00
2019-02-15T03:48:07.047Z,7.01
2019-02-15T03:49:07.001Z,7.05
2019-02-15T03:50:07.009Z,7.03
2019-02-15T03:51:07.022Z,6.96
2019-02-15T03:52:07.064Z,7.05
2019-02-15T03:53:07.031Z,7.01
2019-02-15T03:54:06.998Z,7.03
2019-02-15T03:55:07.018Z,7.00
2019-02-15T03:56:07.057Z,7.01
2019-02-15T03:57:07.014Z,7.03
2019-02-15T03:58:07.019Z,7.04
2019-02-15T03:59:07.031Z,7.05
2019-02-15T04:00:07.088Z,7.01
2019-02-15T04:01:07.046Z,7.03
2019-02-15T04:02:07.065Z,6.97
2019-02-15T04:03:07.029Z,7.03
2019-02-15T04:04:07.047Z,7.03
2019-02-15T04:05:07.202Z,7.00
2019-02-15T04:06:07.058Z,6.92
2019-02-15T04:07:07.042Z,6.93
2019-02-15T04:08:07.052Z,6.95
2019-02-15T04:09:07.053Z,6.96
2019-02-15T04:10:07.062Z,6.93
2019-02-15T04:11:07.083Z,6.93
2019-02-15T04:12:07.063Z,6.93
2019-02-15T04:13:07.072Z,6.93
2019-02-15T04:14:07.078Z,6.90
2019-02-15T04:15:07.104Z,6.93
2019-02-15T04:16:07.083Z,6.89
2019-02-15T04:17:07.096Z,6.95
2019-02-15T04:18:07.112Z,7.03
2019-02-15T04:19:07.096Z,6.89
2019-02-15T04:20:07.081Z,6.95
2019-02-15T04:21:07.089Z,6.89
2019-02-15T04:22:07.147Z,6.95
2019-02-15T04:23:07.146Z,6.92
2019-02-15T04:24:07.133Z,6.85
2019-02-15T04:25:07.114Z,6.83
2019-02-15T04:26:07.113Z,6.86
2019-02-15T04:27:07.114Z,7.00
2019-02-15T04:28:07.116Z,6.90
2019-02-15T04:29:07.145Z,6.80
2019-02-15T04:30:07.138Z,6.83
2019-02-15T04:31:07.133Z,6.78
2019-02-15T04:32:07.150Z,6.86
2019-02-15T04:33:07.152Z,6.80
2019-02-15T04:34:07.426Z,6.75
2019-02-15T04:35:07.156Z,6.78
2019-02-15T04:36:07.177Z,6.78
2019-02-15T04:37:07.198Z,6.75
2019-02-15T04:38:07.144Z,6.75
2019-02-15T04:39:07.141Z,6.75
2019-02-15T04:40:07.169Z,6.83
2019-02-15T04:41:07.175Z,6.77
2019-02-15T04:42:07.168Z,6.71
2019-02-15T04:43:07.162Z,6.70
2019-02-15T04:44:07.178Z,6.72
2019-02-15T04:45:07.182Z,6.71
2019-02-15T04:46:07.186Z,6.72
2019-02-15T04:47:07.185Z,6.77
2019-02-15T04:48:07.183Z,6.83
2019-02-15T04:49:07.185Z,6.75
2019-02-15T04:50:07.253Z,6.74
2019-02-15T04:51:07.195Z,6.77
2019-02-15T04:52:07.193Z,6.74
2019-02-15T04:53:07.186Z,6.78
2019-02-15T04:54:07.189Z,6.74
2019-02-15T04:55:07.273Z,6.78
2019-02-15T04:56:07.252Z,6.86
2019-02-15T04:57:07.207Z,6.74
2019-02-15T04:58:07.209Z,6.72
2019-02-15T04:59:07.217Z,6.72
2019-02-15T05:00:07.222Z,6.80
2019-02-15T05:01:07.234Z,6.78
2019-02-15T05:02:07.258Z,6.75
2019-02-15T05:03:07.217Z,6.77
2019-02-15T05:04:07.217Z,6.74
2019-02-15T05:05:07.228Z,6.77
2019-02-15T05:06:07.315Z,6.74
2019-02-15T05:07:07.227Z,6.78
2019-02-15T05:08:07.235Z,6.77
2019-02-15T05:09:07.233Z,6.77
2019-02-15T05:10:07.255Z,6.77
2019-02-15T05:11:07.267Z,6.75
2019-02-15T05:12:07.271Z,6.77
2019-02-15T05:13:07.295Z,6.72
2019-02-15T05:14:07.269Z,6.77
2019-02-15T05:15:07.252Z,6.71
2019-02-15T05:16:07.271Z,6.64
2019-02-15T05:17:07.310Z,6.70
2019-02-15T05:18:07.273Z,6.67
2019-02-15T05:19:07.270Z,6.68
2019-02-15T05:20:07.304Z,6.72
2019-02-15T05:21:07.282Z,6.62
2019-02-15T05:22:07.295Z,6.59
2019-02-15T05:23:07.412Z,6.64
2019-02-15T05:24:07.291Z,6.60
2019-02-15T05:25:07.293Z,6.68
2019-02-15T05:26:07.289Z,6.56
2019-02-15T05:27:07.321Z,6.68
2019-02-15T05:28:08.996Z,6.68
2019-02-15T05:29:07.340Z,6.65
2019-02-15T05:30:07.297Z,6.65
2019-02-15T05:31:07.295Z,6.60
2019-02-15T05:32:07.306Z,6.60
2019-02-15T05:33:07.317Z,6.64
2019-02-15T05:34:07.357Z,6.60
2019-02-15T05:35:07.315Z,6.60
2019-02-15T05:36:07.327Z,6.64
2019-02-15T05:37:07.325Z,6.56
2019-02-15T05:38:07.336Z,6.64
2019-02-15T05:39:07.344Z,6.64
2019-02-15T05:40:07.363Z,6.60
2019-02-15T05:41:07.408Z,6.54
2019-02-15T05:42:07.340Z,6.62
2019-02-15T05:43:07.351Z,6.56
2019-02-15T05:44:07.375Z,6.57
2019-02-15T05:45:07.387Z,6.60
2019-02-15T05:46:07.368Z,6.60
2019-02-15T05:47:07.365Z,6.62
2019-02-15T05:48:07.376Z,6.57
2019-02-15T05:49:07.358Z,6.54
2019-02-15T05:50:07.391Z,6.56
2019-02-15T05:51:07.358Z,6.59
2019-02-15T05:52:07.363Z,6.60
2019-02-15T05:53:07.375Z,6.59
2019-02-15T05:54:07.388Z,6.43
2019-02-15T05:55:07.401Z,6.53
2019-02-15T05:56:07.432Z,6.53
2019-02-15T05:57:09.531Z,6.53
2019-02-15T05:58:07.394Z,6.47
2019-02-15T05:59:07.383Z,6.49
2019-02-15T06:00:07.406Z,6.52
2019-02-15T06:01:07.400Z,6.50
2019-02-15T06:02:07.424Z,6.52
2019-02-15T06:03:07.400Z,6.49
2019-02-15T06:04:07.417Z,6.44
2019-02-15T06:05:07.418Z,6.50
2019-02-15T06:06:07.409Z,6.50
2019-02-15T06:07:07.459Z,6.44
2019-02-15T06:08:07.420Z,6.52
2019-02-15T06:09:07.433Z,6.44
2019-02-15T06:10:07.432Z,6.50
2019-02-15T06:11:08.427Z,6.43
2019-02-15T06:12:07.478Z,6.49
2019-02-15T06:13:07.442Z,6.41
2019-02-15T06:14:07.445Z,6.41
2019-02-15T06:15:14.781Z,6.44
2019-02-15T06:16:07.464Z,6.52
2019-02-15T06:17:07.444Z,6.43
2019-02-15T06:18:07.508Z,6.50
2019-02-15T06:19:07.455Z,6.49
2019-02-15T06:20:07.472Z,6.49
2019-02-15T06:21:07.447Z,6.47
2019-02-15T06:22:07.466Z,6.41
2019-02-15T06:23:07.484Z,6.39
2019-02-15T06:24:07.499Z,6.44
2019-02-15T06:25:07.462Z,6.44
2019-02-15T06:26:07.467Z,6.43
2019-02-15T06:27:07.464Z,6.41
2019-02-15T06:28:07.492Z,6.53
2019-02-15T06:29:07.522Z,6.43
2019-02-15T06:30:07.496Z,6.49
2019-02-15T06:31:07.503Z,6.49
2019-02-15T06:32:07.570Z,6.43
2019-02-15T06:33:07.516Z,6.41
2019-02-15T06:34:07.503Z,6.46
2019-02-15T06:35:07.613Z,6.36
2019-02-15T06:36:07.499Z,6.39
2019-02-15T06:37:07.501Z,6.43
2019-02-15T06:38:07.508Z,6.49
2019-02-15T06:39:07.556Z,6.46
2019-02-15T06:40:07.515Z,6.41
2019-02-15T06:41:07.526Z,6.39
2019-02-15T06:42:07.518Z,6.44
2019-02-15T06:43:07.525Z,6.44
2019-02-15T06:44:07.571Z,6.41
2019-02-15T06:45:07.516Z,6.49
2019-02-15T06:46:07.540Z,6.50
2019-02-15T06:47:07.564Z,6.46
2019-02-15T06:48:07.538Z,6.47
2019-02-15T06:49:07.528Z,6.46
2019-02-15T06:50:07.568Z,6.52
2019-02-15T06:51:07.548Z,6.49
2019-02-15T06:52:07.554Z,6.50
2019-02-15T06:53:09.853Z,6.49
2019-02-15T06:54:07.555Z,6.43
2019-02-15T06:55:07.589Z,6.49
2019-02-15T06:56:07.559Z,6.52
2019-02-15T06:57:07.567Z,6.52
2019-02-15T06:58:07.580Z,6.53
2019-02-15T06:59:07.576Z,6.60
2019-02-15T07:00:07.609Z,6.59
2019-02-15T07:01:07.563Z,6.60
2019-02-15T07:02:07.566Z,6.57
2019-02-15T07:03:07.583Z,6.59
2019-02-15T07:04:07.578Z,6.62
2019-02-15T07:05:07.587Z,6.64
2019-02-15T07:06:07.616Z,6.56
2019-02-15T07:07:07.592Z,6.70
2019-02-15T07:08:07.609Z,6.64
2019-02-15T07:09:07.629Z,6.67
2019-02-15T07:10:07.614Z,6.71
2019-02-15T07:11:07.630Z,6.72
2019-02-15T07:12:07.635Z,6.67
2019-02-15T07:13:07.621Z,6.71
2019-02-15T07:14:07.639Z,6.83
2019-02-15T07:15:07.615Z,6.75
2019-02-15T07:16:07.687Z,6.74
2019-02-15T07:17:07.627Z,6.80
2019-02-15T07:18:07.613Z,6.78
2019-02-15T07:19:07.645Z,6.87
2019-02-15T07:20:07.635Z,6.85
2019-02-15T07:21:07.636Z,6.82
2019-02-15T07:22:07.683Z,6.86
2019-02-15T07:23:07.663Z,6.86
2019-02-15T07:24:07.654Z,6.95
2019-02-15T07:25:07.647Z,6.97
2019-02-15T07:26:07.659Z,6.95
2019-02-15T07:27:07.677Z,6.95
2019-02-15T07:28:07.690Z,6.87
2019-02-15T07:29:07.663Z,6.89
2019-02-15T07:30:07.677Z,6.97
2019-02-15T07:31:07.660Z,7.04
2019-02-15T07:32:07.660Z,7.00
2019-02-15T07:33:07.722Z,7.03
2019-02-15T07:34:07.674Z,6.92
2019-02-15T07:35:07.696Z,7.03
2019-02-15T07:36:07.689Z,7.07
2019-02-15T07:37:07.699Z,7.03
2019-02-15T07:38:07.709Z,7.00
2019-02-15T07:39:07.686Z,7.07
2019-02-15T07:40:07.710Z,7.07
2019-02-15T07:41:07.711Z,7.13
2019-02-15T07:42:07.716Z,7.10
2019-02-15T07:43:07.748Z,7.19
2019-02-15T07:44:07.750Z,7.10
2019-02-15T07:45:07.709Z,7.11
2019-02-15T07:46:07.718Z,7.13
2019-02-15T07:47:07.718Z,7.19
2019-02-15T07:48:07.738Z,7.23
2019-02-15T07:49:07.789Z,7.22
2019-02-15T07:50:07.727Z,7.21
2019-02-15T07:51:09.879Z,7.29
2019-02-15T07:52:07.744Z,7.26
2019-02-15T07:53:09.073Z,7.22
2019-02-15T07:54:07.734Z,7.25
2019-02-15T07:55:07.763Z,7.39
2019-02-15T07:56:07.756Z,7.33
2019-02-15T07:57:07.808Z,7.33
2019-02-15T07:58:07.769Z,7.37
2019-02-15T07:59:07.862Z,7.43
2019-02-15T08:00:07.769Z,7.41
2019-02-15T08:01:07.765Z,7.40
2019-02-15T08:02:07.763Z,7.43
2019-02-15T08:03:07.774Z,7.43
2019-02-15T08:04:07.776Z,7.53
2019-02-15T08:05:07.839Z,7.58
2019-02-15T08:06:07.823Z,7.53
2019-02-15T08:07:07.785Z,7.53
2019-02-15T08:08:07.780Z,7.51
2019-02-15T08:09:07.801Z,7.67
2019-02-15T08:10:07.811Z,7.64
2019-02-15T08:11:07.816Z,7.64
2019-02-15T08:12:07.808Z,7.59
2019-02-15T08:13:07.808Z,7.78
2019-02-15T08:14:14.561Z,7.66
2019-02-15T08:15:07.805Z,7.66
2019-02-15T08:16:07.850Z,7.67
2019-02-15T08:17:07.854Z,7.80
2019-02-15T08:18:07.863Z,7.80
2019-02-15T08:19:07.840Z,7.84
2019-02-15T08:20:07.834Z,7.83
2019-02-15T08:21:07.830Z,7.88
2019-02-15T08:22:07.912Z,7.91
2019-02-15T08:23:07.850Z,7.95
2019-02-15T08:24:07.861Z,7.90
2019-02-15T08:25:08.004Z,7.91
2019-02-15T08:26:07.842Z,7.93
2019-02-15T08:27:07.853Z,7.98
2019-02-15T08:28:07.898Z,8.01
2019-02-15T08:29:07.863Z,7.99
2019-02-15T08:30:07.867Z,8.01
2019-02-15T08:31:07.880Z,8.06
2019-02-15T08:32:07.876Z,8.13
2019-02-15T08:33:07.930Z,8.11
2019-02-15T08:34:07.874Z,8.09
2019-02-15T08:35:07.891Z,8.16
2019-02-15T08:36:07.889Z,8.11
2019-02-15T08:37:07.909Z,8.16
2019-02-15T08:38:07.963Z,8.23
2019-02-15T08:39:07.887Z,8.18
2019-02-15T08:40:07.933Z,8.18
2019-02-15T08:41:07.910Z,8.31
2019-02-15T08:42:07.910Z,8.28
2019-02-15T08:43:07.902Z,8.27
2019-02-15T08:44:07.991Z,8.24
2019-02-15T08:45:07.929Z,8.38
2019-02-15T08:46:07.924Z,8.38
2019-02-15T08:47:07.942Z,8.38
2019-02-15T08:48:07.990Z,8.28
2019-02-15T08:49:07.926Z,8.32
2019-02-15T08:50:07.947Z,8.44
2019-02-15T08:51:07.944Z,8.41
2019-02-15T08:52:07.939Z,8.46
2019-02-15T08:53:07.953Z,8.56
2019-02-15T08:54:08.021Z,8.53
2019-02-15T08:55:07.955Z,8.50
2019-02-15T08:56:07.967Z,8.53
2019-02-15T08:57:07.971Z,8.53
2019-02-15T08:58:07.990Z,8.56
2019-02-15T08:59:07.989Z,8.59
2019-02-15T09:00:08.029Z,8.60
2019-02-15T09:01:08.008Z,8.59
2019-02-15T09:02:07.976Z,8.64
2019-02-15T09:03:07.982Z,8.61
2019-02-15T09:04:07.994Z,8.71
2019-02-15T09:05:08.017Z,8.68
2019-02-15T09:06:08.051Z,8.66
2019-02-15T09:07:08.014Z,8.71
2019-02-15T09:08:08.014Z,8.69
2019-02-15T09:09:08.028Z,8.69
2019-02-15T09:10:08.039Z,8.74
2019-02-15T09:11:08.016Z,8.81
2019-02-15T09:12:08.085Z,8.75
2019-02-15T09:13:08.052Z,8.78
2019-02-15T09:14:08.058Z,8.79
2019-02-15T09:15:08.102Z,8.82
2019-02-15T09:16:10.385Z,8.79
2019-02-15T09:17:08.032Z,8.86
2019-02-15T09:18:08.073Z,8.84
2019-02-15T09:19:08.042Z,8.84
2019-02-15T09:20:08.041Z,8.95
2019-02-15T09:21:08.062Z,8.87
2019-02-15T09:22:08.111Z,8.90
2019-02-15T09:23:08.061Z,8.90
2019-02-15T09:24:08.094Z,8.93
2019-02-15T09:25:08.074Z,9.03
2019-02-15T09:26:08.097Z,9.02
2019-02-15T09:27:08.143Z,9.00
2019-02-15T09:28:08.082Z,8.99
2019-02-15T09:29:08.094Z,9.12
2019-02-15T09:30:08.104Z,9.09
2019-02-15T09:31:08.119Z,9.11
2019-02-15T09:32:08.114Z,9.03
2019-02-15T09:33:08.171Z,9.13
2019-02-15T09:34:08.122Z,9.21
2019-02-15T09:35:08.102Z,9.16
2019-02-15T09:36:08.134Z,9.24
2019-02-15T09:37:08.125Z,9.21
2019-02-15T09:38:08.125Z,9.22
2019-02-15T09:39:08.155Z,9.30
2019-02-15T09:40:08.174Z,9.29
2019-02-15T09:41:08.144Z,9.26
2019-02-15T09:42:08.194Z,9.29
2019-02-15T09:43:08.192Z,9.31
2019-02-15T09:44:08.169Z,9.30
2019-02-15T09:45:08.160Z,9.40
2019-02-15T09:46:08.168Z,9.51
2019-02-15T09:47:08.193Z,9.42
2019-02-15T09:48:08.172Z,9.42
2019-02-15T09:49:08.205Z,9.51
2019-02-15T09:50:09.833Z,9.44
2019-02-15T09:51:08.196Z,9.33
2019-02-15T09:52:08.197Z,9.56
2019-02-15T09:53:08.202Z,9.52
2019-02-15T09:54:08.235Z,9.48
2019-02-15T09:55:08.233Z,9.45
2019-02-15T09:56:08.194Z,9.51
2019-02-15T09:57:08.215Z,9.51
2019-02-15T09:58:08.212Z,9.44
2019-02-15T09:59:08.260Z,9.48
2019-02-15T10:00:08.214Z,9.51
2019-02-15T10:01:08.246Z,9.48
2019-02-15T10:02:08.253Z,9.49
2019-02-15T10:03:08.238Z,9.56
2019-02-15T10:04:08.237Z,9.59
2019-02-15T10:05:08.289Z,9.59
2019-02-15T10:06:08.247Z,9.62
2019-02-15T10:07:08.247Z,9.64
2019-02-15T10:08:08.260Z,9.55
2019-02-15T10:09:08.270Z,9.76
2019-02-15T10:10:08.325Z,9.67
2019-02-15T10:11:08.271Z,9.76
2019-02-15T10:12:08.339Z,9.64
2019-02-15T10:13:08.266Z,9.82
2019-02-15T10:14:08.332Z,9.90
2019-02-15T10:15:08.298Z,9.87
2019-02-15T10:16:08.333Z,9.94
2019-02-15T10:17:08.303Z,9.90
2019-02-15T10:18:08.308Z,9.85
2019-02-15T10:19:08.344Z,9.88
2019-02-15T10:20:08.304Z,9.92
2019-02-15T10:21:08.346Z,9.95
2019-02-15T10:22:08.354Z,9.91
2019-02-15T10:23:08.318Z,10.05
2019-02-15T10:24:08.313Z,10.06
2019-02-15T10:25:08.323Z,9.92
2019-02-15T10:26:08.339Z,10.06
2019-02-15T10:27:08.412Z,9.97
2019-02-15T10:28:08.388Z,10.05
2019-02-15T10:29:08.360Z,10.09
2019-02-15T10:30:08.356Z,10.10
2019-02-15T10:31:08.364Z,10.12
2019-02-15T10:32:08.593Z,10.12
2019-02-15T10:33:08.405Z,10.09
2019-02-15T10:34:08.379Z,10.12
2019-02-15T10:35:08.390Z,10.17
2019-02-15T10:36:08.371Z,10.25
2019-02-15T10:37:08.387Z,10.25
2019-02-15T10:38:08.430Z,10.24
2019-02-15T10:39:08.402Z,10.24
2019-02-15T10:40:08.419Z,10.27
2019-02-15T10:41:08.397Z,10.36
2019-02-15T10:42:08.399Z,10.28
2019-02-15T10:43:08.463Z,10.31
2019-02-15T10:44:08.426Z,10.33
2019-02-15T10:45:08.419Z,10.39
2019-02-15T10:46:08.420Z,10.36
2019-02-15T10:47:14.200Z,10.45
2019-02-15T10:48:08.443Z,10.43
2019-02-15T10:49:08.491Z,10.45
2019-02-15T10:50:08.448Z,10.45
2019-02-15T10:51:08.447Z,10.51
2019-02-15T10:52:08.478Z,10.55
2019-02-15T10:53:08.479Z,10.59
2019-02-15T10:54:08.497Z,10.51
2019-02-15T10:55:08.479Z,10.58
2019-02-15T10:56:08.462Z,10.53
2019-02-15T10:57:08.473Z,10.64
2019-02-15T10:58:08.499Z,10.59
2019-02-15T10:59:08.563Z,10.57
2019-02-15T11:00:08.524Z,10.62
2019-02-15T11:01:08.506Z,10.68
2019-02-15T11:02:08.495Z,10.62
2019-02-15T11:03:08.506Z,10.65
2019-02-15T11:04:08.510Z,10.71
2019-02-15T11:05:08.557Z,10.68
2019-02-15T11:06:08.521Z,10.69
2019-02-15T11:07:08.525Z,10.68
2019-02-15T11:08:08.535Z,10.82
2019-02-15T11:09:08.539Z,10.79
2019-02-15T11:10:08.637Z,10.84
2019-02-15T11:11:08.555Z,10.75
2019-02-15T11:12:08.603Z,10.84
2019-02-15T11:13:08.573Z,10.82
2019-02-15T11:14:08.563Z,10.80
2019-02-15T11:15:08.586Z,10.83
2019-02-15T11:16:08.606Z,10.86
2019-02-15T11:17:08.575Z,10.87
2019-02-15T11:18:08.581Z,10.97
2019-02-15T11:19:08.607Z,10.97
2019-02-15T11:20:08.599Z,10.92
2019-02-15T11:21:08.622Z,10.98
2019-02-15T11:22:08.595Z,10.90
2019-02-15T11:23:08.623Z,11.00
2019-02-15T11:24:08.611Z,10.92
2019-02-15T11:25:08.612Z,11.04
2019-02-15T11:26:08.822Z,10.95
2019-02-15T11:27:08.625Z,11.18
2019-02-15T11:28:08.628Z,11.10
2019-02-15T11:29:08.634Z,11.19
2019-02-15T11:30:08.642Z,11.27
2019-02-15T11:31:08.697Z,11.25
2019-02-15T11:32:08.647Z,11.27
2019-02-15T11:33:08.715Z,11.26
2019-02-15T11:34:08.656Z,11.30
2019-02-15T11:35:08.675Z,11.30
2019-02-15T11:36:08.671Z,11.35
2019-02-15T11:37:08.718Z,11.38
2019-02-15T11:38:08.678Z,11.41
2019-02-15T11:39:08.690Z,11.37
2019-02-15T11:40:08.695Z,11.35
2019-02-15T11:41:11.257Z,11.33
2019-02-15T11:42:08.767Z,11.35
2019-02-15T11:43:08.737Z,11.49
2019-02-15T11:44:08.731Z,11.48
2019-02-15T11:45:08.735Z,11.49
2019-02-15T11:46:08.731Z,11.48
2019-02-15T11:47:08.735Z,11.49
2019-02-15T11:48:08.766Z,11.44
2019-02-15T11:49:08.740Z,11.55
2019-02-15T11:50:08.775Z,11.58
2019-02-15T11:51:08.784Z,11.56
2019-02-15T11:52:08.817Z,11.58
2019-02-15T11:53:08.778Z,11.68
2019-02-15T11:54:08.778Z,11.68
2019-02-15T11:55:08.790Z,11.68
2019-02-15T11:56:08.780Z,11.74
2019-02-15T11:57:08.804Z,11.73
2019-02-15T11:58:08.853Z,11.76
2019-02-15T11:59:08.783Z,11.81
2019-02-15T12:00:14.260Z,11.80
2019-02-15T12:01:08.844Z,11.78
2019-02-15T12:02:08.819Z,11.76
2019-02-15T12:03:08.824Z,11.88
2019-02-15T12:04:08.824Z,11.80
2019-02-15T12:05:08.833Z,11.74
2019-02-15T12:06:08.828Z,11.93
2019-02-15T12:07:08.871Z,11.77
2019-02-15T12:08:08.848Z,11.86
2019-02-15T12:09:08.895Z,11.78
2019-02-15T12:10:08.869Z,11.88
2019-02-15T12:11:10.902Z,11.97
2019-02-15T12:12:10.987Z,11.97
2019-02-15T12:13:08.873Z,11.97
2019-02-15T12:14:08.931Z,11.97
2019-02-15T12:15:08.886Z,11.96
2019-02-15T12:16:08.907Z,11.96
2019-02-15T12:17:08.896Z,12.00
2019-02-15T12:18:08.902Z,11.96
2019-02-15T12:19:08.896Z,12.07
2019-02-15T12:20:08.969Z,11.97
2019-02-15T12:21:08.910Z,11.99
2019-02-15T12:22:08.914Z,12.03
2019-02-15T12:23:08.983Z,12.05
2019-02-15T12:24:08.942Z,12.03
2019-02-15T12:25:08.934Z,12.00
2019-02-15T12:26:08.992Z,12.08
2019-02-15T12:27:08.939Z,12.11
2019-02-15T12:28:08.962Z,12.08
2019-02-15T12:29:08.967Z,12.15
2019-02-15T12:30:08.991Z,12.03
2019-02-15T12:31:09.004Z,12.12
2019-02-15T12:32:08.971Z,12.14
2019-02-15T12:33:08.989Z,12.17
2019-02-15T12:34:08.983Z,12.26
2019-02-15T12:35:09.011Z,12.20
2019-02-15T12:36:09.009Z,12.28
2019-02-15T12:37:09.018Z,12.26
2019-02-15T12:38:09.014Z,12.29
2019-02-15T12:39:09.011Z,12.32
2019-02-15T12:40:09.015Z,12.32
2019-02-15T12:41:09.076Z,12.36
2019-02-15T12:42:09.047Z,12.36
2019-02-15T12:43:09.053Z,12.36
2019-02-15T12:44:09.066Z,12.37
2019-02-15T12:45:09.042Z,12.36
2019-02-15T12:46:09.048Z,12.45
2019-02-15T12:47:14.834Z,12.43
2019-02-15T12:48:09.098Z,12.37
2019-02-15T12:49:09.065Z,12.43
2019-02-15T12:50:09.108Z,12.36
2019-02-15T12:51:09.093Z,12.40
2019-02-15T12:52:09.147Z,12.40
2019-02-15T12:53:09.116Z,12.53
2019-02-15T12:54:09.094Z,12.50
2019-02-15T12:55:09.114Z,12.50
2019-02-15T12:56:09.112Z,12.55
2019-02-15T12:57:09.127Z,12.57
2019-02-15T12:58:09.144Z,12.50
2019-02-15T12:59:09.141Z,12.57
2019-02-15T13:00:09.130Z,12.54
2019-02-15T13:01:09.167Z,12.51
2019-02-15T13:02:09.182Z,12.53
2019-02-15T13:03:09.204Z,12.51
2019-02-15T13:04:09.159Z,12.48
2019-02-15T13:05:09.172Z,12.57
2019-02-15T13:06:09.164Z,12.61
2019-02-15T13:07:09.243Z,12.61
2019-02-15T13:08:09.193Z,12.65
2019-02-15T13:09:09.193Z,12.62
2019-02-15T13:10:09.266Z,12.57
2019-02-15T13:11:09.207Z,12.69
2019-02-15T13:12:09.213Z,12.69